sensor_id;sensor_type;location;lat;lon;timestamp;P1;durP1;ratioP1;P2;durP2;ratioP2
54589;SDS011;40485;53.172;5.416;2022-08-01T00:01:51;3.30;;;1.50;;
54589;SDS011;40485;53.172;5.416;2022-08-01T00:04:16;1.92;;;1.02;;
54589;SDS011;40485;53.172;5.416;2022-08-01T00:06:42;3.85;;;1.80;;
54589;SDS011;40485;53.172;5.416;2022-08-01T00:09:07;2.80;;;1.80;;
54589;SDS011;40485;53.172;5.416;2022-08-01T00:11:33;5.30;;;2.28;;
54589;SDS011;40485;53.172;5.416;2022-08-01T00:13:59;2.92;;;1.40;;
54589;SDS011;40485;53.172;5.416;2022-08-01T00:16:24;3.95;;;1.40;;
54589;SDS011;40485;53.172;5.416;2022-08-01T00:18:50;3.15;;;1.85;;
54589;SDS011;40485;53.172;5.416;2022-08-01T00:21:17;5.63;;;2.35;;
54589;SDS011;40485;53.172;5.416;2022-08-01T00:23:43;4.20;;;1.73;;
54589;SDS011;40485;53.172;5.416;2022-08-01T00:26:10;3.33;;;1.25;;
54589;SDS011;40485;53.172;5.416;2022-08-01T00:28:37;5.20;;;1.95;;
54589;SDS011;40485;53.172;5.416;2022-08-01T00:31:02;2.90;;;1.58;;
54589;SDS011;40485;53.172;5.416;2022-08-01T00:33:28;3.63;;;1.20;;
54589;SDS011;40485;53.172;5.416;2022-08-01T00:35:54;3.80;;;1.58;;
54589;SDS011;40485;53.172;5.416;2022-08-01T00:38:20;3.83;;;1.27;;
54589;SDS011;40485;53.172;5.416;2022-08-01T00:40:45;3.03;;;1.65;;
54589;SDS011;40485;53.172;5.416;2022-08-01T00:43:11;4.85;;;1.65;;
54589;SDS011;40485;53.172;5.416;2022-08-01T00:45:37;5.82;;;1.25;;
54589;SDS011;40485;53.172;5.416;2022-08-01T00:48:02;4.18;;;1.25;;
54589;SDS011;40485;53.172;5.416;2022-08-01T00:50:28;2.55;;;1.15;;
54589;SDS011;40485;53.172;5.416;2022-08-01T00:52:54;2.88;;;1.05;;
54589;SDS011;40485;53.172;5.416;2022-08-01T00:55:22;3.58;;;1.40;;
54589;SDS011;40485;53.172;5.416;2022-08-01T00:57:48;2.15;;;0.88;;
54589;SDS011;40485;53.172;5.416;2022-08-01T01:00:14;2.97;;;1.25;;
54589;SDS011;40485;53.172;5.416;2022-08-01T01:02:40;1.88;;;0.98;;
54589;SDS011;40485;53.172;5.416;2022-08-01T01:05:06;2.00;;;1.00;;
54589;SDS011;40485;53.172;5.416;2022-08-01T01:07:34;4.15;;;1.25;;
54589;SDS011;40485;53.172;5.416;2022-08-01T01:10:41;5.20;;;1.33;;
54589;SDS011;40485;53.172;5.416;2022-08-01T01:13:13;3.92;;;1.10;;
54589;SDS011;40485;53.172;5.416;2022-08-01T01:18:27;4.10;;;1.40;;
54589;SDS011;40485;53.172;5.416;2022-08-01T01:21:05;8.13;;;1.55;;
54589;SDS011;40485;53.172;5.416;2022-08-01T01:23:40;6.05;;;1.55;;
54589;SDS011;40485;53.172;5.416;2022-08-01T01:26:45;6.78;;;2.08;;
54589;SDS011;40485;53.172;5.416;2022-08-01T01:29:23;7.25;;;2.00;;
54589;SDS011;40485;53.172;5.416;2022-08-01T01:32:07;10.40;;;2.47;;
54589;SDS011;40485;53.172;5.416;2022-08-01T01:34:40;5.95;;;1.55;;
54589;SDS011;40485;53.172;5.416;2022-08-01T01:37:09;8.65;;;2.05;;
54589;SDS011;40485;53.172;5.416;2022-08-01T01:39:41;20.80;;;3.05;;
54589;SDS011;40485;53.172;5.416;2022-08-01T01:42:07;9.95;;;2.00;;
54589;SDS011;40485;53.172;5.416;2022-08-01T01:44:34;6.53;;;1.70;;
54589;SDS011;40485;53.172;5.416;2022-08-01T01:47:02;5.10;;;1.20;;
54589;SDS011;40485;53.172;5.416;2022-08-01T01:49:28;6.57;;;1.70;;
54589;SDS011;40485;53.172;5.416;2022-08-01T01:51:56;3.95;;;1.85;;
54589;SDS011;40485;53.172;5.416;2022-08-01T01:54:23;5.63;;;1.60;;
54589;SDS011;40485;53.172;5.416;2022-08-01T01:56:53;8.65;;;1.30;;
54589;SDS011;40485;53.172;5.416;2022-08-01T01:59:24;4.82;;;1.45;;
54589;SDS011;40485;53.172;5.416;2022-08-01T02:01:53;3.88;;;1.48;;
54589;SDS011;40485;53.172;5.416;2022-08-01T02:04:22;6.43;;;1.88;;
54589;SDS011;40485;53.172;5.416;2022-08-01T02:06:49;5.38;;;1.77;;
54589;SDS011;40485;53.172;5.416;2022-08-01T02:09:17;10.88;;;2.92;;
54589;SDS011;40485;53.172;5.416;2022-08-01T02:11:44;5.05;;;1.50;;
54589;SDS011;40485;53.172;5.416;2022-08-01T02:14:12;4.15;;;1.50;;
54589;SDS011;40485;53.172;5.416;2022-08-01T02:16:39;6.60;;;1.73;;
54589;SDS011;40485;53.172;5.416;2022-08-01T02:19:07;6.28;;;1.80;;
54589;SDS011;40485;53.172;5.416;2022-08-01T02:21:45;4.50;;;1.63;;
54589;SDS011;40485;53.172;5.416;2022-08-01T02:24:18;6.50;;;2.20;;
54589;SDS011;40485;53.172;5.416;2022-08-01T02:26:50;5.45;;;1.75;;
54589;SDS011;40485;53.172;5.416;2022-08-01T02:29:23;7.93;;;1.92;;
54589;SDS011;40485;53.172;5.416;2022-08-01T02:31:53;6.45;;;1.80;;
54589;SDS011;40485;53.172;5.416;2022-08-01T02:34:19;7.72;;;1.77;;
54589;SDS011;40485;53.172;5.416;2022-08-01T02:36:47;7.18;;;1.33;;
54589;SDS011;40485;53.172;5.416;2022-08-01T02:39:14;7.88;;;2.08;;
54589;SDS011;40485;53.172;5.416;2022-08-01T02:41:43;9.70;;;2.30;;
54589;SDS011;40485;53.172;5.416;2022-08-01T02:44:15;7.38;;;1.92;;
54589;SDS011;40485;53.172;5.416;2022-08-01T02:46:56;13.57;;;2.17;;
54589;SDS011;40485;53.172;5.416;2022-08-01T02:49:27;9.48;;;2.35;;
54589;SDS011;40485;53.172;5.416;2022-08-01T02:52:14;11.70;;;1.98;;
54589;SDS011;40485;53.172;5.416;2022-08-01T02:54:41;9.35;;;2.20;;
54589;SDS011;40485;53.172;5.416;2022-08-01T02:57:10;11.35;;;2.42;;
54589;SDS011;40485;53.172;5.416;2022-08-01T02:59:38;10.48;;;1.95;;
54589;SDS011;40485;53.172;5.416;2022-08-01T03:02:04;9.93;;;1.77;;
54589;SDS011;40485;53.172;5.416;2022-08-01T03:04:33;8.55;;;1.92;;
54589;SDS011;40485;53.172;5.416;2022-08-01T03:07:02;7.53;;;2.00;;
54589;SDS011;40485;53.172;5.416;2022-08-01T03:09:29;6.47;;;1.83;;
54589;SDS011;40485;53.172;5.416;2022-08-01T03:11:59;10.18;;;2.08;;
54589;SDS011;40485;53.172;5.416;2022-08-01T03:14:27;7.80;;;2.10;;
54589;SDS011;40485;53.172;5.416;2022-08-01T03:16:55;8.63;;;2.35;;
54589;SDS011;40485;53.172;5.416;2022-08-01T03:19:22;7.05;;;2.05;;
54589;SDS011;40485;53.172;5.416;2022-08-01T03:21:49;7.65;;;2.10;;
54589;SDS011;40485;53.172;5.416;2022-08-01T03:24:16;7.68;;;1.98;;
54589;SDS011;40485;53.172;5.416;2022-08-01T03:26:43;8.43;;;2.17;;
54589;SDS011;40485;53.172;5.416;2022-08-01T03:29:14;9.55;;;1.50;;
54589;SDS011;40485;53.172;5.416;2022-08-01T03:31:44;7.38;;;1.88;;
54589;SDS011;40485;53.172;5.416;2022-08-01T03:34:13;8.18;;;1.80;;
54589;SDS011;40485;53.172;5.416;2022-08-01T03:36:43;9.95;;;2.03;;
54589;SDS011;40485;53.172;5.416;2022-08-01T03:39:30;4.93;;;1.77;;
54589;SDS011;40485;53.172;5.416;2022-08-01T03:42:01;5.88;;;2.03;;
54589;SDS011;40485;53.172;5.416;2022-08-01T03:44:34;7.78;;;1.65;;
54589;SDS011;40485;53.172;5.416;2022-08-01T03:47:04;8.95;;;1.50;;
54589;SDS011;40485;53.172;5.416;2022-08-01T03:49:35;6.85;;;2.05;;
54589;SDS011;40485;53.172;5.416;2022-08-01T03:52:06;8.95;;;1.58;;
54589;SDS011;40485;53.172;5.416;2022-08-01T03:54:34;11.90;;;2.05;;
54589;SDS011;40485;53.172;5.416;2022-08-01T03:57:12;11.20;;;2.13;;
54589;SDS011;40485;53.172;5.416;2022-08-01T03:59:39;8.45;;;1.88;;
54589;SDS011;40485;53.172;5.416;2022-08-01T04:02:06;8.82;;;1.52;;
54589;SDS011;40485;53.172;5.416;2022-08-01T04:04:32;9.43;;;2.03;;
54589;SDS011;40485;53.172;5.416;2022-08-01T04:06:58;11.80;;;1.95;;
54589;SDS011;40485;53.172;5.416;2022-08-01T04:09:29;11.75;;;2.10;;
54589;SDS011;40485;53.172;5.416;2022-08-01T04:11:56;9.30;;;1.70;;
54589;SDS011;40485;53.172;5.416;2022-08-01T04:14:22;7.03;;;1.80;;
54589;SDS011;40485;53.172;5.416;2022-08-01T04:16:48;7.35;;;1.95;;
54589;SDS011;40485;53.172;5.416;2022-08-01T04:19:14;9.43;;;2.00;;
54589;SDS011;40485;53.172;5.416;2022-08-01T04:21:40;13.65;;;2.25;;
54589;SDS011;40485;53.172;5.416;2022-08-01T04:24:23;9.00;;;1.52;;
54589;SDS011;40485;53.172;5.416;2022-08-01T04:26:53;7.60;;;1.48;;
54589;SDS011;40485;53.172;5.416;2022-08-01T04:29:19;9.13;;;1.58;;
54589;SDS011;40485;53.172;5.416;2022-08-01T04:31:47;8.18;;;2.10;;
54589;SDS011;40485;53.172;5.416;2022-08-01T04:34:15;5.13;;;1.52;;
54589;SDS011;40485;53.172;5.416;2022-08-01T04:36:45;10.90;;;2.08;;
54589;SDS011;40485;53.172;5.416;2022-08-01T04:39:12;7.70;;;1.70;;
54589;SDS011;40485;53.172;5.416;2022-08-01T04:41:39;7.53;;;1.45;;
54589;SDS011;40485;53.172;5.416;2022-08-01T04:44:06;9.23;;;1.40;;
54589;SDS011;40485;53.172;5.416;2022-08-01T04:46:32;11.23;;;1.90;;
54589;SDS011;40485;53.172;5.416;2022-08-01T04:48:59;8.23;;;1.33;;
54589;SDS011;40485;53.172;5.416;2022-08-01T04:51:25;7.40;;;2.08;;
54589;SDS011;40485;53.172;5.416;2022-08-01T04:53:51;9.13;;;2.10;;
54589;SDS011;40485;53.172;5.416;2022-08-01T04:56:17;7.47;;;1.52;;
54589;SDS011;40485;53.172;5.416;2022-08-01T04:58:45;7.07;;;1.55;;
54589;SDS011;40485;53.172;5.416;2022-08-01T05:01:11;7.32;;;1.60;;
54589;SDS011;40485;53.172;5.416;2022-08-01T05:03:37;8.40;;;1.80;;
54589;SDS011;40485;53.172;5.416;2022-08-01T05:06:03;7.80;;;2.05;;
54589;SDS011;40485;53.172;5.416;2022-08-01T05:08:28;6.57;;;1.77;;
54589;SDS011;40485;53.172;5.416;2022-08-01T05:10:54;6.40;;;1.50;;
54589;SDS011;40485;53.172;5.416;2022-08-01T05:13:20;9.10;;;1.73;;
54589;SDS011;40485;53.172;5.416;2022-08-01T05:15:45;12.27;;;1.90;;
54589;SDS011;40485;53.172;5.416;2022-08-01T05:18:11;9.27;;;1.90;;
54589;SDS011;40485;53.172;5.416;2022-08-01T05:20:37;8.82;;;1.60;;
54589;SDS011;40485;53.172;5.416;2022-08-01T05:23:03;8.52;;;1.90;;
54589;SDS011;40485;53.172;5.416;2022-08-01T05:25:30;10.02;;;2.03;;
54589;SDS011;40485;53.172;5.416;2022-08-01T05:27:56;10.82;;;1.80;;
54589;SDS011;40485;53.172;5.416;2022-08-01T05:30:22;8.80;;;1.60;;
54589;SDS011;40485;53.172;5.416;2022-08-01T05:32:48;7.03;;;1.50;;
54589;SDS011;40485;53.172;5.416;2022-08-01T05:35:13;8.93;;;1.75;;
54589;SDS011;40485;53.172;5.416;2022-08-01T05:37:39;7.55;;;1.83;;
54589;SDS011;40485;53.172;5.416;2022-08-01T05:40:05;6.88;;;1.63;;
54589;SDS011;40485;53.172;5.416;2022-08-01T05:42:31;9.05;;;1.88;;
54589;SDS011;40485;53.172;5.416;2022-08-01T05:44:57;6.80;;;1.40;;
54589;SDS011;40485;53.172;5.416;2022-08-01T05:47:22;9.45;;;2.08;;
54589;SDS011;40485;53.172;5.416;2022-08-01T05:49:48;10.57;;;2.30;;
54589;SDS011;40485;53.172;5.416;2022-08-01T05:52:14;6.80;;;1.27;;
54589;SDS011;40485;53.172;5.416;2022-08-01T05:54:39;7.53;;;1.50;;
54589;SDS011;40485;53.172;5.416;2022-08-01T05:57:05;10.43;;;2.35;;
54589;SDS011;40485;53.172;5.416;2022-08-01T05:59:31;10.60;;;1.58;;
54589;SDS011;40485;53.172;5.416;2022-08-01T06:01:57;8.05;;;1.75;;
54589;SDS011;40485;53.172;5.416;2022-08-01T06:04:22;11.07;;;1.83;;
54589;SDS011;40485;53.172;5.416;2022-08-01T06:06:48;6.55;;;1.60;;
54589;SDS011;40485;53.172;5.416;2022-08-01T06:09:14;8.27;;;1.90;;
54589;SDS011;40485;53.172;5.416;2022-08-01T06:11:39;7.78;;;1.85;;
54589;SDS011;40485;53.172;5.416;2022-08-01T06:14:05;7.63;;;1.90;;
54589;SDS011;40485;53.172;5.416;2022-08-01T06:16:31;7.53;;;1.77;;
54589;SDS011;40485;53.172;5.416;2022-08-01T06:18:57;7.07;;;2.00;;
54589;SDS011;40485;53.172;5.416;2022-08-01T06:21:22;7.93;;;1.88;;
54589;SDS011;40485;53.172;5.416;2022-08-01T06:23:48;7.85;;;1.65;;
54589;SDS011;40485;53.172;5.416;2022-08-01T06:26:13;6.43;;;1.63;;
54589;SDS011;40485;53.172;5.416;2022-08-01T06:28:43;6.32;;;1.60;;
54589;SDS011;40485;53.172;5.416;2022-08-01T06:31:08;9.10;;;1.88;;
54589;SDS011;40485;53.172;5.416;2022-08-01T06:33:36;8.82;;;1.63;;
54589;SDS011;40485;53.172;5.416;2022-08-01T06:36:02;4.47;;;1.27;;
54589;SDS011;40485;53.172;5.416;2022-08-01T06:38:27;8.10;;;1.55;;
54589;SDS011;40485;53.172;5.416;2022-08-01T06:40:53;9.13;;;1.67;;
54589;SDS011;40485;53.172;5.416;2022-08-01T06:43:19;5.55;;;1.70;;
54589;SDS011;40485;53.172;5.416;2022-08-01T06:45:44;7.00;;;1.58;;
54589;SDS011;40485;53.172;5.416;2022-08-01T06:48:10;8.93;;;1.60;;
54589;SDS011;40485;53.172;5.416;2022-08-01T06:50:36;7.47;;;2.00;;
54589;SDS011;40485;53.172;5.416;2022-08-01T06:53:02;6.25;;;1.33;;
54589;SDS011;40485;53.172;5.416;2022-08-01T06:55:27;7.82;;;1.10;;
54589;SDS011;40485;53.172;5.416;2022-08-01T06:57:53;8.57;;;2.08;;
54589;SDS011;40485;53.172;5.416;2022-08-01T07:00:20;9.52;;;1.70;;
54589;SDS011;40485;53.172;5.416;2022-08-01T07:02:50;8.70;;;1.92;;
54589;SDS011;40485;53.172;5.416;2022-08-01T07:05:17;4.35;;;1.13;;
54589;SDS011;40485;53.172;5.416;2022-08-01T07:07:43;6.53;;;1.15;;
54589;SDS011;40485;53.172;5.416;2022-08-01T07:10:09;7.53;;;2.00;;
54589;SDS011;40485;53.172;5.416;2022-08-01T07:12:35;9.23;;;1.35;;
54589;SDS011;40485;53.172;5.416;2022-08-01T07:15:05;5.78;;;1.30;;
54589;SDS011;40485;53.172;5.416;2022-08-01T07:17:32;7.53;;;1.67;;
54589;SDS011;40485;53.172;5.416;2022-08-01T07:20:05;8.55;;;1.98;;
54589;SDS011;40485;53.172;5.416;2022-08-01T07:22:32;5.70;;;1.30;;
54589;SDS011;40485;53.172;5.416;2022-08-01T07:24:58;8.15;;;1.60;;
54589;SDS011;40485;53.172;5.416;2022-08-01T07:27:24;5.93;;;1.90;;
54589;SDS011;40485;53.172;5.416;2022-08-01T07:29:49;5.07;;;1.23;;
54589;SDS011;40485;53.172;5.416;2022-08-01T07:32:15;5.15;;;1.23;;
54589;SDS011;40485;53.172;5.416;2022-08-01T07:34:40;6.53;;;1.17;;
54589;SDS011;40485;53.172;5.416;2022-08-01T07:37:06;5.88;;;1.50;;
54589;SDS011;40485;53.172;5.416;2022-08-01T07:39:32;5.28;;;1.45;;
54589;SDS011;40485;53.172;5.416;2022-08-01T07:41:57;5.35;;;1.33;;
54589;SDS011;40485;53.172;5.416;2022-08-01T07:44:23;11.43;;;1.58;;
54589;SDS011;40485;53.172;5.416;2022-08-01T07:46:48;3.65;;;1.10;;
54589;SDS011;40485;53.172;5.416;2022-08-01T07:49:14;4.50;;;1.13;;
54589;SDS011;40485;53.172;5.416;2022-08-01T07:51:39;9.65;;;1.48;;
54589;SDS011;40485;53.172;5.416;2022-08-01T07:54:05;4.13;;;1.20;;
54589;SDS011;40485;53.172;5.416;2022-08-01T07:56:32;6.13;;;1.38;;
54589;SDS011;40485;53.172;5.416;2022-08-01T07:58:57;4.80;;;1.20;;
54589;SDS011;40485;53.172;5.416;2022-08-01T08:01:23;17.52;;;2.40;;
54589;SDS011;40485;53.172;5.416;2022-08-01T08:03:48;6.80;;;1.40;;
54589;SDS011;40485;53.172;5.416;2022-08-01T08:06:14;6.43;;;1.25;;
54589;SDS011;40485;53.172;5.416;2022-08-01T08:08:39;6.70;;;1.20;;
54589;SDS011;40485;53.172;5.416;2022-08-01T08:11:05;5.50;;;1.10;;
54589;SDS011;40485;53.172;5.416;2022-08-01T08:13:31;7.10;;;1.58;;
54589;SDS011;40485;53.172;5.416;2022-08-01T08:15:56;6.00;;;1.20;;
54589;SDS011;40485;53.172;5.416;2022-08-01T08:18:23;5.40;;;1.13;;
54589;SDS011;40485;53.172;5.416;2022-08-01T08:20:49;6.38;;;1.33;;
54589;SDS011;40485;53.172;5.416;2022-08-01T08:23:15;6.22;;;1.05;;
54589;SDS011;40485;53.172;5.416;2022-08-01T08:25:59;5.55;;;1.25;;
54589;SDS011;40485;53.172;5.416;2022-08-01T08:28:25;5.10;;;1.20;;
54589;SDS011;40485;53.172;5.416;2022-08-01T08:30:50;4.47;;;1.05;;
54589;SDS011;40485;53.172;5.416;2022-08-01T08:33:17;5.88;;;1.25;;
54589;SDS011;40485;53.172;5.416;2022-08-01T08:35:43;8.05;;;1.00;;
54589;SDS011;40485;53.172;5.416;2022-08-01T08:38:09;8.68;;;1.73;;
54589;SDS011;40485;53.172;5.416;2022-08-01T08:40:34;5.80;;;1.00;;
54589;SDS011;40485;53.172;5.416;2022-08-01T08:43:03;11.68;;;1.38;;
54589;SDS011;40485;53.172;5.416;2022-08-01T08:45:29;4.30;;;1.15;;
54589;SDS011;40485;53.172;5.416;2022-08-01T08:47:56;4.38;;;1.10;;
54589;SDS011;40485;53.172;5.416;2022-08-01T08:50:22;6.00;;;1.10;;
54589;SDS011;40485;53.172;5.416;2022-08-01T08:52:50;3.42;;;0.82;;
54589;SDS011;40485;53.172;5.416;2022-08-01T08:55:17;8.90;;;1.58;;
54589;SDS011;40485;53.172;5.416;2022-08-01T08:57:43;4.72;;;1.00;;
54589;SDS011;40485;53.172;5.416;2022-08-01T09:00:10;4.95;;;1.20;;
54589;SDS011;40485;53.172;5.416;2022-08-01T09:02:44;7.07;;;1.15;;
54589;SDS011;40485;53.172;5.416;2022-08-01T09:05:11;4.75;;;1.30;;
54589;SDS011;40485;53.172;5.416;2022-08-01T09:07:38;6.38;;;1.52;;
54589;SDS011;40485;53.172;5.416;2022-08-01T09:10:04;5.32;;;0.90;;
54589;SDS011;40485;53.172;5.416;2022-08-01T09:12:30;4.43;;;0.80;;
54589;SDS011;40485;53.172;5.416;2022-08-01T09:14:56;5.97;;;0.85;;
54589;SDS011;40485;53.172;5.416;2022-08-01T09:17:22;4.90;;;0.98;;
54589;SDS011;40485;53.172;5.416;2022-08-01T09:19:49;3.75;;;1.02;;
54589;SDS011;40485;53.172;5.416;2022-08-01T09:22:17;5.05;;;1.00;;
54589;SDS011;40485;53.172;5.416;2022-08-01T09:27:34;6.43;;;1.13;;
54589;SDS011;40485;53.172;5.416;2022-08-01T09:30:07;4.53;;;0.95;;
54589;SDS011;40485;53.172;5.416;2022-08-01T09:32:34;3.95;;;0.95;;
54589;SDS011;40485;53.172;5.416;2022-08-01T09:35:21;4.90;;;0.90;;
54589;SDS011;40485;53.172;5.416;2022-08-01T09:37:49;6.05;;;1.10;;
54589;SDS011;40485;53.172;5.416;2022-08-01T09:40:14;11.95;;;1.13;;
54589;SDS011;40485;53.172;5.416;2022-08-01T09:42:40;3.38;;;0.80;;
54589;SDS011;40485;53.172;5.416;2022-08-01T09:45:06;3.10;;;0.95;;
54589;SDS011;40485;53.172;5.416;2022-08-01T09:47:38;4.38;;;1.15;;
54589;SDS011;40485;53.172;5.416;2022-08-01T09:50:04;3.92;;;0.93;;
54589;SDS011;40485;53.172;5.416;2022-08-01T09:52:30;3.67;;;0.93;;
54589;SDS011;40485;53.172;5.416;2022-08-01T09:54:58;4.88;;;0.60;;
54589;SDS011;40485;53.172;5.416;2022-08-01T09:57:25;5.57;;;1.15;;
54589;SDS011;40485;53.172;5.416;2022-08-01T09:59:53;3.97;;;0.80;;
54589;SDS011;40485;53.172;5.416;2022-08-01T10:04:59;6.15;;;1.10;;
54589;SDS011;40485;53.172;5.416;2022-08-01T10:07:29;4.78;;;1.15;;
54589;SDS011;40485;53.172;5.416;2022-08-01T10:09:54;4.00;;;0.93;;
54589;SDS011;40485;53.172;5.416;2022-08-01T10:12:21;8.10;;;1.33;;
54589;SDS011;40485;53.172;5.416;2022-08-01T10:14:49;5.65;;;0.90;;
54589;SDS011;40485;53.172;5.416;2022-08-01T10:17:17;4.10;;;1.00;;
54589;SDS011;40485;53.172;5.416;2022-08-01T10:19:45;2.28;;;0.63;;
54589;SDS011;40485;53.172;5.416;2022-08-01T10:22:12;4.40;;;1.00;;
54589;SDS011;40485;53.172;5.416;2022-08-01T10:24:41;3.53;;;0.82;;
54589;SDS011;40485;53.172;5.416;2022-08-01T10:27:10;3.47;;;0.80;;
54589;SDS011;40485;53.172;5.416;2022-08-01T10:29:43;2.65;;;0.68;;
54589;SDS011;40485;53.172;5.416;2022-08-01T10:32:13;5.45;;;0.88;;
54589;SDS011;40485;53.172;5.416;2022-08-01T10:34:39;4.07;;;0.80;;
54589;SDS011;40485;53.172;5.416;2022-08-01T10:37:05;5.00;;;1.00;;
54589;SDS011;40485;53.172;5.416;2022-08-01T10:39:33;4.25;;;1.15;;
54589;SDS011;40485;53.172;5.416;2022-08-01T10:41:59;4.20;;;0.95;;
54589;SDS011;40485;53.172;5.416;2022-08-01T10:44:26;5.72;;;0.80;;
54589;SDS011;40485;53.172;5.416;2022-08-01T10:47:01;2.75;;;0.45;;
54589;SDS011;40485;53.172;5.416;2022-08-01T10:49:31;6.40;;;1.02;;
54589;SDS011;40485;53.172;5.416;2022-08-01T10:52:04;4.32;;;0.68;;
54589;SDS011;40485;53.172;5.416;2022-08-01T10:54:29;4.18;;;0.88;;
54589;SDS011;40485;53.172;5.416;2022-08-01T10:57:03;4.43;;;0.82;;
54589;SDS011;40485;53.172;5.416;2022-08-01T10:59:31;4.20;;;0.65;;
54589;SDS011;40485;53.172;5.416;2022-08-01T11:01:59;3.92;;;0.93;;
54589;SDS011;40485;53.172;5.416;2022-08-01T11:05:09;3.40;;;0.70;;
54589;SDS011;40485;53.172;5.416;2022-08-01T11:07:35;3.90;;;0.85;;
54589;SDS011;40485;53.172;5.416;2022-08-01T11:10:16;2.20;;;0.73;;
54589;SDS011;40485;53.172;5.416;2022-08-01T11:12:44;3.90;;;0.60;;
54589;SDS011;40485;53.172;5.416;2022-08-01T11:17:43;4.97;;;1.00;;
54589;SDS011;40485;53.172;5.416;2022-08-01T11:20:13;4.55;;;1.70;;
54589;SDS011;40485;53.172;5.416;2022-08-01T11:25:27;2.00;;;0.60;;
54589;SDS011;40485;53.172;5.416;2022-08-01T11:30:46;3.45;;;0.90;;
54589;SDS011;40485;53.172;5.416;2022-08-01T11:33:13;3.90;;;1.10;;
54589;SDS011;40485;53.172;5.416;2022-08-01T11:38:47;3.63;;;0.80;;
54589;SDS011;40485;53.172;5.416;2022-08-01T11:41:26;2.15;;;0.60;;
54589;SDS011;40485;53.172;5.416;2022-08-01T11:44:07;5.30;;;0.93;;
54589;SDS011;40485;53.172;5.416;2022-08-01T11:52:13;3.70;;;0.50;;
54589;SDS011;40485;53.172;5.416;2022-08-01T11:54:49;5.63;;;0.88;;
54589;SDS011;40485;53.172;5.416;2022-08-01T11:57:26;4.47;;;0.88;;
54589;SDS011;40485;53.172;5.416;2022-08-01T11:59:58;3.13;;;0.77;;
54589;SDS011;40485;53.172;5.416;2022-08-01T12:02:29;2.90;;;0.85;;
54589;SDS011;40485;53.172;5.416;2022-08-01T12:05:04;5.82;;;0.82;;
54589;SDS011;40485;53.172;5.416;2022-08-01T12:07:33;7.88;;;1.10;;
54589;SDS011;40485;53.172;5.416;2022-08-01T12:10:08;4.35;;;0.70;;
54589;SDS011;40485;53.172;5.416;2022-08-01T12:12:44;3.72;;;0.70;;
54589;SDS011;40485;53.172;5.416;2022-08-01T12:15:17;2.20;;;0.90;;
54589;SDS011;40485;53.172;5.416;2022-08-01T12:17:46;3.85;;;0.90;;
54589;SDS011;40485;53.172;5.416;2022-08-01T12:20:14;5.40;;;0.90;;
54589;SDS011;40485;53.172;5.416;2022-08-01T12:22:41;6.55;;;1.00;;
54589;SDS011;40485;53.172;5.416;2022-08-01T12:25:12;4.10;;;0.90;;
54589;SDS011;40485;53.172;5.416;2022-08-01T12:27:42;5.65;;;0.80;;
54589;SDS011;40485;53.172;5.416;2022-08-01T12:30:10;5.43;;;0.82;;
54589;SDS011;40485;53.172;5.416;2022-08-01T12:32:38;3.00;;;0.70;;
54589;SDS011;40485;53.172;5.416;2022-08-01T12:35:09;3.08;;;0.75;;
54589;SDS011;40485;53.172;5.416;2022-08-01T12:37:41;5.18;;;0.70;;
54589;SDS011;40485;53.172;5.416;2022-08-01T12:40:15;3.30;;;0.80;;
54589;SDS011;40485;53.172;5.416;2022-08-01T12:42:43;3.75;;;0.80;;
54589;SDS011;40485;53.172;5.416;2022-08-01T12:45:16;4.50;;;0.90;;
54589;SDS011;40485;53.172;5.416;2022-08-01T12:47:43;2.88;;;0.80;;
54589;SDS011;40485;53.172;5.416;2022-08-01T12:50:15;4.72;;;0.95;;
54589;SDS011;40485;53.172;5.416;2022-08-01T12:52:42;4.22;;;0.57;;
54589;SDS011;40485;53.172;5.416;2022-08-01T12:55:16;1.90;;;0.50;;
54589;SDS011;40485;53.172;5.416;2022-08-01T12:57:44;4.77;;;0.70;;
54589;SDS011;40485;53.172;5.416;2022-08-01T13:00:23;4.32;;;0.73;;
54589;SDS011;40485;53.172;5.416;2022-08-01T13:03:10;4.53;;;0.60;;
54589;SDS011;40485;53.172;5.416;2022-08-01T13:05:46;3.57;;;1.00;;
54589;SDS011;40485;53.172;5.416;2022-08-01T13:08:14;3.50;;;0.90;;
54589;SDS011;40485;53.172;5.416;2022-08-01T13:10:42;4.35;;;0.73;;
54589;SDS011;40485;53.172;5.416;2022-08-01T13:13:09;3.65;;;0.90;;
54589;SDS011;40485;53.172;5.416;2022-08-01T13:15:36;2.95;;;0.80;;
54589;SDS011;40485;53.172;5.416;2022-08-01T13:20:50;1.92;;;0.63;;
54589;SDS011;40485;53.172;5.416;2022-08-01T13:23:41;3.28;;;0.70;;
54589;SDS011;40485;53.172;5.416;2022-08-01T13:26:38;3.78;;;0.80;;
54589;SDS011;40485;53.172;5.416;2022-08-01T13:29:05;5.75;;;0.93;;
54589;SDS011;40485;53.172;5.416;2022-08-01T13:31:32;1.75;;;0.55;;
54589;SDS011;40485;53.172;5.416;2022-08-01T13:33:58;3.25;;;0.88;;
54589;SDS011;40485;53.172;5.416;2022-08-01T13:36:24;3.60;;;0.60;;
54589;SDS011;40485;53.172;5.416;2022-08-01T13:38:52;3.95;;;0.80;;
54589;SDS011;40485;53.172;5.416;2022-08-01T13:41:36;2.53;;;0.63;;
54589;SDS011;40485;53.172;5.416;2022-08-01T13:44:02;4.85;;;0.93;;
54589;SDS011;40485;53.172;5.416;2022-08-01T13:46:30;3.90;;;0.77;;
54589;SDS011;40485;53.172;5.416;2022-08-01T13:48:56;5.18;;;1.00;;
54589;SDS011;40485;53.172;5.416;2022-08-01T13:51:22;3.15;;;0.65;;
54589;SDS011;40485;53.172;5.416;2022-08-01T13:53:48;2.35;;;0.50;;
54589;SDS011;40485;53.172;5.416;2022-08-01T13:56:13;3.72;;;1.13;;
54589;SDS011;40485;53.172;5.416;2022-08-01T13:58:41;4.95;;;0.82;;
54589;SDS011;40485;53.172;5.416;2022-08-01T14:01:06;3.85;;;0.93;;
54589;SDS011;40485;53.172;5.416;2022-08-01T14:03:32;3.50;;;0.60;;
54589;SDS011;40485;53.172;5.416;2022-08-01T14:05:58;7.40;;;1.10;;
54589;SDS011;40485;53.172;5.416;2022-08-01T14:08:24;2.95;;;0.73;;
54589;SDS011;40485;53.172;5.416;2022-08-01T14:10:49;2.50;;;0.88;;
54589;SDS011;40485;53.172;5.416;2022-08-01T14:13:16;4.90;;;0.82;;
54589;SDS011;40485;53.172;5.416;2022-08-01T14:15:42;7.50;;;1.10;;
54589;SDS011;40485;53.172;5.416;2022-08-01T14:18:08;3.03;;;0.63;;
54589;SDS011;40485;53.172;5.416;2022-08-01T14:20:34;4.30;;;0.68;;
54589;SDS011;40485;53.172;5.416;2022-08-01T14:23:02;5.72;;;0.68;;
54589;SDS011;40485;53.172;5.416;2022-08-01T14:25:27;3.78;;;0.60;;
54589;SDS011;40485;53.172;5.416;2022-08-01T14:27:53;2.20;;;0.70;;
54589;SDS011;40485;53.172;5.416;2022-08-01T14:30:19;4.22;;;1.17;;
54589;SDS011;40485;53.172;5.416;2022-08-01T14:32:45;3.47;;;0.80;;
54589;SDS011;40485;53.172;5.416;2022-08-01T14:35:11;5.03;;;0.77;;
54589;SDS011;40485;53.172;5.416;2022-08-01T14:37:36;2.95;;;0.77;;
54589;SDS011;40485;53.172;5.416;2022-08-01T14:40:02;4.43;;;0.80;;
54589;SDS011;40485;53.172;5.416;2022-08-01T14:42:31;3.97;;;0.98;;
54589;SDS011;40485;53.172;5.416;2022-08-01T14:44:56;5.50;;;0.90;;
54589;SDS011;40485;53.172;5.416;2022-08-01T14:47:22;5.15;;;1.15;;
54589;SDS011;40485;53.172;5.416;2022-08-01T14:49:48;7.93;;;1.20;;
54589;SDS011;40485;53.172;5.416;2022-08-01T14:52:14;2.40;;;0.60;;
54589;SDS011;40485;53.172;5.416;2022-08-01T14:54:40;3.25;;;0.80;;
54589;SDS011;40485;53.172;5.416;2022-08-01T14:57:05;4.57;;;0.95;;
54589;SDS011;40485;53.172;5.416;2022-08-01T14:59:31;4.28;;;0.80;;
54589;SDS011;40485;53.172;5.416;2022-08-01T15:01:56;2.90;;;0.80;;
54589;SDS011;40485;53.172;5.416;2022-08-01T15:04:22;3.92;;;0.73;;
54589;SDS011;40485;53.172;5.416;2022-08-01T15:06:48;5.10;;;0.93;;
54589;SDS011;40485;53.172;5.416;2022-08-01T15:09:13;3.25;;;0.75;;
54589;SDS011;40485;53.172;5.416;2022-08-01T15:11:39;3.80;;;1.00;;
54589;SDS011;40485;53.172;5.416;2022-08-01T15:14:04;3.15;;;0.85;;
54589;SDS011;40485;53.172;5.416;2022-08-01T15:16:48;2.42;;;0.60;;
54589;SDS011;40485;53.172;5.416;2022-08-01T15:19:14;3.90;;;0.90;;
54589;SDS011;40485;53.172;5.416;2022-08-01T15:21:40;3.38;;;0.98;;